createdAt,value
2023-05-14T00:00:33.375Z,81.56
2023-05-14T00:03:01.491Z,81.44
2023-05-14T00:05:29.232Z,82.03
2023-05-14T00:07:56.821Z,81.48
2023-05-14T00:10:25.109Z,81.44
2023-05-14T00:12:53.253Z,81.59
2023-05-14T00:15:21.087Z,81.67
2023-05-14T00:17:49.074Z,81.21
2023-05-14T00:20:16.617Z,82.18
2023-05-14T00:22:44.199Z,80.98
2023-05-14T00:25:12.253Z,80.94
2023-05-14T00:27:39.897Z,81.06
2023-05-14T00:30:08.066Z,81.37
2023-05-14T00:32:36.049Z,81.70
2023-05-14T00:35:03.896Z,81.26
2023-05-14T00:37:31.600Z,81.72
2023-05-14T00:39:59.534Z,81.91
2023-05-14T00:42:27.217Z,81.76
2023-05-14T00:44:54.902Z,81.93
2023-05-14T00:47:23.096Z,81.99
2023-05-14T00:49:50.796Z,82.31
2023-05-14T00:52:18.770Z,81.92
2023-05-14T00:54:48.109Z,81.95
2023-05-14T00:57:15.813Z,82.18
2023-05-14T00:59:43.533Z,83.14
2023-05-14T01:02:11.503Z,82.84
2023-05-14T01:04:39.595Z,83.52
2023-05-14T01:07:37.769Z,83.51
2023-05-14T01:10:13.799Z,83.42
2023-05-14T01:12:50.135Z,84.47
2023-05-14T01:15:22.150Z,85.32
2023-05-14T01:18:05.611Z,84.99
2023-05-14T01:20:33.676Z,85.06
2023-05-14T01:23:01.605Z,84.91
2023-05-14T01:25:30.398Z,85.17
2023-05-14T01:27:58.287Z,85.33
2023-05-14T01:30:32.518Z,84.59
2023-05-14T01:33:02.793Z,85.18
2023-05-14T01:35:30.848Z,85.51
2023-05-14T01:38:01.359Z,84.85
2023-05-14T01:40:29.815Z,84.77
2023-05-14T01:42:57.525Z,84.80
2023-05-14T01:45:25.288Z,84.99
2023-05-14T01:47:53.929Z,85.42
2023-05-14T01:50:21.651Z,84.62
2023-05-14T01:52:49.340Z,84.79
2023-05-14T01:55:17.436Z,84.08
2023-05-14T01:57:45.082Z,83.99
2023-05-14T02:00:13.676Z,84.09
2023-05-14T02:02:41.414Z,84.30
2023-05-14T02:05:10.950Z,83.96
2023-05-14T02:07:38.933Z,83.75
2023-05-14T02:10:07.471Z,84.12
2023-05-14T02:12:35.498Z,83.95
2023-05-14T02:15:04.133Z,83.87
2023-05-14T02:17:31.933Z,84.09
2023-05-14T02:19:59.535Z,83.23
2023-05-14T02:22:27.452Z,83.42
2023-05-14T02:24:55.021Z,83.59
2023-05-14T02:27:22.663Z,83.66
2023-05-14T02:29:50.642Z,83.34
2023-05-14T02:32:18.348Z,83.68
2023-05-14T02:34:45.988Z,83.19
2023-05-14T02:37:13.906Z,83.20
2023-05-14T02:39:41.544Z,82.81
2023-05-14T02:42:09.245Z,82.89
2023-05-14T02:44:37.371Z,83.02
2023-05-14T02:47:05.276Z,83.09
2023-05-14T02:49:33.023Z,82.83
2023-05-14T02:52:00.934Z,82.79
2023-05-14T02:54:28.762Z,82.23
2023-05-14T02:56:56.497Z,82.73
2023-05-14T02:59:24.539Z,82.67
2023-05-14T03:01:52.838Z,82.54
2023-05-14T03:04:21.312Z,82.70
2023-05-14T03:06:49.421Z,82.82
2023-05-14T03:09:17.194Z,82.53
2023-05-14T03:11:44.817Z,82.29
2023-05-14T03:14:12.695Z,82.61
2023-05-14T03:16:40.396Z,82.18
2023-05-14T03:19:08.409Z,82.19
2023-05-14T03:21:36.445Z,81.68
2023-05-14T03:24:04.152Z,82.00
2023-05-14T03:26:31.773Z,81.97
2023-05-14T03:28:59.737Z,81.60
2023-05-14T03:31:27.365Z,81.52
2023-05-14T03:33:57.267Z,81.56
2023-05-14T03:36:25.125Z,80.82
2023-05-14T03:38:53.678Z,81.16
2023-05-14T03:41:21.247Z,81.07
2023-05-14T03:43:49.231Z,80.44
2023-05-14T03:46:16.842Z,80.52
2023-05-14T03:48:44.499Z,80.27
2023-05-14T03:51:13.500Z,80.40
2023-05-14T03:53:41.266Z,80.31
2023-05-14T03:56:08.896Z,80.92
2023-05-14T03:58:36.801Z,80.42
2023-05-14T04:01:04.491Z,80.50
2023-05-14T04:03:32.680Z,80.78
2023-05-14T04:06:01.368Z,80.64
2023-05-14T04:08:29.084Z,80.87
2023-05-14T04:10:57.457Z,81.07
2023-05-14T04:13:25.166Z,80.94
2023-05-14T04:15:53.015Z,81.11
2023-05-14T04:18:21.139Z,80.20
2023-05-14T04:20:49.758Z,80.02
2023-05-14T04:23:18.107Z,81.11
2023-05-14T04:25:46.081Z,81.05
2023-05-14T04:28:13.666Z,80.42
2023-05-14T04:30:41.279Z,80.75
2023-05-14T04:33:09.442Z,81.38
2023-05-14T04:35:37.169Z,81.43
2023-05-14T04:38:04.803Z,81.24
2023-05-14T04:40:32.870Z,81.36
2023-05-14T04:43:00.535Z,80.79
2023-05-14T04:45:28.260Z,80.86
2023-05-14T04:47:56.146Z,81.45
2023-05-14T04:50:24.123Z,81.70
2023-05-14T04:52:52.182Z,81.38
2023-05-14T04:55:20.119Z,81.09
2023-05-14T04:57:47.774Z,81.22
2023-05-14T05:00:16.983Z,81.38
2023-05-14T05:02:44.934Z,81.35
2023-05-14T05:05:12.653Z,80.85
2023-05-14T05:07:40.367Z,81.15
2023-05-14T05:10:08.756Z,80.59
2023-05-14T05:12:36.347Z,80.89
2023-05-14T05:15:04.685Z,80.44
2023-05-14T05:17:32.712Z,80.10
2023-05-14T05:20:00.363Z,80.83
2023-05-14T05:22:28.041Z,80.72
2023-05-14T05:24:56.080Z,79.91
2023-05-14T05:27:23.684Z,79.94
2023-05-14T05:29:51.673Z,80.48
2023-05-14T05:32:19.620Z,80.22
2023-05-14T05:34:47.342Z,79.97
2023-05-14T05:37:15.030Z,80.14
2023-05-14T05:39:43.084Z,80.34
2023-05-14T05:42:10.788Z,80.73
2023-05-14T05:44:38.410Z,80.03
2023-05-14T05:47:06.586Z,79.96
2023-05-14T05:49:34.262Z,79.82
2023-05-14T05:52:01.963Z,80.14
2023-05-14T05:54:30.995Z,79.20
2023-05-14T05:56:59.302Z,79.71
2023-05-14T05:59:26.923Z,79.55
2023-05-14T06:01:54.863Z,79.26
2023-05-14T06:04:22.756Z,79.85
2023-05-14T06:06:50.502Z,79.07
2023-05-14T06:09:18.117Z,79.38
2023-05-14T06:11:45.986Z,79.68
2023-05-14T06:14:13.633Z,79.51
2023-05-14T06:16:41.345Z,79.60
2023-05-14T06:19:09.439Z,79.24
2023-05-14T06:21:37.097Z,80.00
2023-05-14T06:24:05.027Z,79.46
2023-05-14T06:26:32.970Z,79.32
2023-05-14T06:29:00.630Z,79.59
2023-05-14T06:31:28.475Z,79.64
2023-05-14T06:33:56.525Z,78.69
2023-05-14T06:36:24.350Z,79.04
2023-05-14T06:38:52.277Z,79.51
2023-05-14T06:41:20.257Z,79.35
2023-05-14T06:43:47.901Z,79.29
2023-05-14T06:46:15.503Z,79.19
2023-05-14T06:48:46.304Z,79.19
2023-05-14T06:51:14.081Z,80.28
2023-05-14T06:53:41.819Z,79.92
2023-05-14T06:56:09.676Z,80.08
2023-05-14T06:58:37.306Z,79.53
2023-05-14T07:01:05.132Z,79.56
2023-05-14T07:03:33.069Z,79.80
2023-05-14T07:06:00.779Z,79.61
2023-05-14T07:08:28.435Z,79.60
2023-05-14T07:10:56.263Z,79.30
2023-05-14T07:13:28.325Z,78.70
2023-05-14T07:15:56.601Z,78.81
2023-05-14T07:18:24.235Z,77.76
2023-05-14T07:20:51.936Z,78.59
2023-05-14T07:23:20.080Z,78.36
2023-05-14T07:25:47.752Z,77.56
2023-05-14T07:28:15.404Z,77.80
2023-05-14T07:30:43.380Z,76.94
2023-05-14T07:33:11.127Z,77.31
2023-05-14T07:35:38.832Z,77.87
2023-05-14T07:38:06.971Z,77.84
2023-05-14T07:40:34.572Z,76.58
2023-05-14T07:43:02.262Z,77.76
2023-05-14T07:45:30.283Z,77.39
2023-05-14T07:47:57.965Z,77.03
2023-05-14T07:50:25.915Z,77.71
2023-05-14T07:52:53.865Z,77.29
2023-05-14T07:55:21.449Z,76.42
2023-05-14T07:57:49.155Z,76.49
2023-05-14T08:00:17.263Z,76.67
2023-05-14T08:02:45.329Z,77.14
2023-05-14T08:05:13.123Z,77.84
2023-05-14T08:07:40.666Z,78.49
2023-05-14T08:10:09.035Z,77.89
2023-05-14T08:12:36.682Z,79.07
2023-05-14T08:15:05.569Z,78.99
2023-05-14T08:17:33.904Z,79.15
2023-05-14T08:20:01.650Z,80.05
2023-05-14T08:22:29.380Z,79.64
2023-05-14T08:24:57.253Z,78.65
2023-05-14T08:27:25.157Z,78.84
2023-05-14T08:29:53.040Z,78.98
2023-05-14T08:32:23.876Z,79.16
2023-05-14T08:34:52.401Z,77.56
2023-05-14T08:37:20.132Z,78.37
2023-05-14T08:39:48.109Z,77.93
2023-05-14T08:42:16.105Z,77.86
2023-05-14T08:44:53.599Z,77.73
2023-05-14T08:47:21.992Z,77.49
2023-05-14T08:49:59.464Z,75.90
2023-05-14T08:52:27.524Z,77.42
2023-05-14T08:54:56.055Z,77.37
2023-05-14T08:57:25.293Z,77.17
2023-05-14T08:59:53.866Z,77.29
2023-05-14T09:02:23.913Z,77.86
2023-05-14T09:04:55.913Z,78.18
2023-05-14T09:07:24.464Z,75.12
2023-05-14T09:09:52.936Z,77.18
2023-05-14T09:12:21.498Z,77.12
2023-05-14T09:14:50.262Z,76.26
2023-05-14T09:17:18.638Z,76.22
2023-05-14T09:19:46.751Z,75.91
2023-05-14T09:22:16.981Z,75.71
2023-05-14T09:24:45.482Z,78.06
2023-05-14T09:27:19.190Z,79.06
2023-05-14T09:29:47.708Z,78.40
2023-05-14T09:32:15.247Z,77.80
2023-05-14T09:34:42.859Z,78.06
2023-05-14T09:37:10.974Z,77.46
2023-05-14T09:39:38.919Z,76.81
2023-05-14T09:42:06.777Z,78.31
2023-05-14T09:44:35.254Z,76.53
2023-05-14T09:47:02.984Z,77.84
2023-05-14T09:49:30.685Z,78.34
2023-05-14T09:51:58.648Z,77.71
2023-05-14T09:54:26.800Z,78.37
2023-05-14T09:56:55.756Z,77.84
2023-05-14T09:59:23.829Z,77.39
2023-05-14T10:01:52.428Z,78.00
2023-05-14T10:04:20.776Z,77.43
2023-05-14T10:06:51.221Z,78.75
2023-05-14T10:09:21.200Z,76.19
2023-05-14T10:11:53.403Z,77.55
2023-05-14T10:14:25.487Z,77.30
2023-05-14T10:16:54.161Z,77.92
2023-05-14T10:19:24.681Z,78.55
2023-05-14T10:21:57.309Z,77.54
2023-05-14T10:24:25.962Z,78.27
2023-05-14T10:26:54.185Z,78.93
2023-05-14T10:29:32.480Z,78.16
2023-05-14T10:32:06.692Z,78.64
2023-05-14T10:34:35.245Z,78.54
2023-05-14T10:37:23.970Z,77.98
2023-05-14T10:39:59.672Z,76.51
2023-05-14T10:42:32.575Z,77.18
2023-05-14T10:45:05.451Z,76.36
2023-05-14T10:47:36.873Z,77.36
2023-05-14T10:50:06.658Z,77.76
2023-05-14T10:52:35.318Z,77.36
2023-05-14T10:55:04.840Z,77.78
2023-05-14T10:57:32.690Z,77.55
2023-05-14T11:00:01.364Z,77.69
2023-05-14T11:02:31.540Z,78.23
2023-05-14T11:05:07.123Z,78.10
2023-05-14T11:07:39.279Z,78.82
2023-05-14T11:10:12.074Z,78.13
2023-05-14T11:12:44.225Z,78.03
2023-05-14T11:15:13.803Z,79.95
2023-05-14T11:17:42.960Z,80.20
2023-05-14T11:20:11.522Z,79.98
2023-05-14T11:22:40.337Z,81.16
2023-05-14T11:25:09.343Z,80.89
2023-05-14T11:27:38.707Z,81.77
2023-05-14T11:30:13.081Z,81.55
2023-05-14T11:32:41.122Z,81.41
2023-05-14T11:35:08.902Z,80.40
2023-05-14T11:37:37.080Z,80.88
2023-05-14T11:40:14.502Z,81.62
2023-05-14T11:42:42.227Z,80.78
2023-05-14T11:45:14.150Z,80.64
2023-05-14T11:47:42.356Z,81.59
2023-05-14T11:50:10.630Z,80.51
2023-05-14T11:52:40.515Z,79.28
2023-05-14T11:55:14.264Z,80.51
2023-05-14T11:57:42.259Z,80.88
2023-05-14T12:00:13.594Z,81.90
2023-05-14T12:02:41.777Z,82.50
2023-05-14T12:05:12.971Z,82.27
2023-05-14T12:07:44.887Z,83.08
2023-05-14T12:10:12.928Z,83.99
2023-05-14T12:12:40.988Z,85.15
2023-05-14T12:15:12.496Z,85.03
2023-05-14T12:17:40.270Z,85.87
2023-05-14T12:20:09.443Z,86.69
2023-05-14T12:22:37.345Z,86.96
2023-05-14T12:25:10.068Z,87.81
2023-05-14T12:27:38.055Z,87.74
2023-05-14T12:30:20.728Z,88.83
2023-05-14T12:32:50.062Z,89.08
2023-05-14T12:35:17.737Z,90.11
2023-05-14T12:37:45.484Z,90.53
2023-05-14T12:40:13.663Z,91.41
2023-05-14T12:42:41.309Z,90.31
2023-05-14T12:45:09.096Z,90.96
2023-05-14T12:47:37.470Z,91.38
2023-05-14T12:50:06.031Z,91.20
2023-05-14T12:52:38.598Z,91.70
2023-05-14T12:55:08.382Z,91.42
2023-05-14T12:57:37.005Z,91.43
2023-05-14T13:00:05.383Z,91.99
2023-05-14T13:02:42.079Z,92.05
2023-05-14T13:05:13.761Z,92.82
2023-05-14T13:07:42.185Z,94.03
2023-05-14T13:10:10.354Z,93.73
2023-05-14T13:12:37.941Z,94.69
2023-05-14T13:15:06.351Z,93.48
2023-05-14T13:17:34.097Z,93.94
2023-05-14T13:20:01.740Z,93.51
2023-05-14T13:22:29.755Z,94.76
2023-05-14T13:24:57.360Z,95.03
2023-05-14T13:27:24.986Z,95.08
2023-05-14T13:29:53.177Z,95.14
2023-05-14T13:32:20.787Z,95.72
2023-05-14T13:34:48.456Z,96.99
2023-05-14T13:37:16.496Z,96.03
2023-05-14T13:39:44.135Z,96.01
2023-05-14T13:42:11.745Z,96.54
2023-05-14T13:44:39.712Z,97.02
2023-05-14T13:47:07.420Z,96.45
2023-05-14T13:49:35.048Z,97.31
2023-05-14T13:52:03.131Z,97.35
2023-05-14T13:54:30.799Z,98.11
2023-05-14T13:56:59.160Z,97.76
2023-05-14T13:59:27.253Z,98.21
2023-05-14T14:01:55.454Z,98.31
2023-05-14T14:04:24.434Z,97.74
2023-05-14T14:06:53.040Z,98.01
2023-05-14T14:09:21.392Z,98.45
2023-05-14T14:11:49.576Z,99.01
2023-05-14T14:14:17.981Z,99.26
2023-05-14T14:16:45.777Z,98.96
2023-05-14T14:19:15.431Z,98.41
2023-05-14T14:21:43.881Z,97.47
2023-05-14T14:24:11.641Z,97.00
2023-05-14T14:26:39.533Z,97.70
2023-05-14T14:29:07.186Z,98.21
2023-05-14T14:31:36.821Z,97.82
2023-05-14T14:34:05.306Z,98.20
2023-05-14T14:36:33.403Z,98.71
2023-05-14T14:39:01.119Z,98.41
2023-05-14T14:41:29.134Z,97.83
2023-05-14T14:43:56.835Z,98.07
2023-05-14T14:46:24.493Z,98.54
2023-05-14T14:48:52.858Z,98.96
2023-05-14T14:51:20.613Z,98.69
2023-05-14T14:53:48.404Z,98.78
2023-05-14T14:56:16.487Z,100.00
2023-05-14T14:58:44.150Z,100.00
2023-05-14T15:01:11.853Z,100.00
2023-05-14T15:03:40.191Z,100.00
2023-05-14T15:06:08.093Z,100.00
2023-05-14T15:08:35.772Z,100.00
2023-05-14T15:11:03.854Z,100.00
2023-05-14T15:13:31.703Z,100.00
2023-05-14T15:15:59.685Z,99.27
2023-05-14T15:18:27.802Z,100.00
2023-05-14T15:20:56.540Z,99.77
2023-05-14T15:23:24.412Z,99.25
2023-05-14T15:25:52.781Z,99.60
2023-05-14T15:28:20.624Z,100.00
2023-05-14T15:30:48.466Z,100.00
2023-05-14T15:33:16.597Z,100.00
2023-05-14T15:35:44.526Z,99.88
2023-05-14T15:38:12.306Z,100.00
2023-05-14T15:40:40.763Z,100.00
2023-05-14T15:43:08.539Z,100.00
2023-05-14T15:45:36.368Z,100.00
2023-05-14T15:48:05.272Z,100.00
2023-05-14T15:50:33.410Z,100.00
2023-05-14T15:53:01.183Z,100.00
2023-05-14T15:55:29.243Z,100.00
2023-05-14T15:57:57.187Z,100.00
2023-05-14T16:00:25.257Z,100.00
2023-05-14T16:02:54.174Z,100.00
2023-05-14T16:05:21.991Z,100.00
2023-05-14T16:07:49.669Z,100.00
2023-05-14T16:10:18.537Z,100.00
2023-05-14T16:12:46.426Z,100.00
2023-05-14T16:15:14.241Z,100.00
2023-05-14T16:17:42.318Z,100.00
2023-05-14T16:20:10.831Z,100.00
2023-05-14T16:22:38.606Z,100.00
2023-05-14T16:25:07.035Z,100.00
2023-05-14T16:27:34.794Z,100.00
2023-05-14T16:30:02.688Z,100.00
2023-05-14T16:32:30.853Z,100.00
2023-05-14T16:34:58.652Z,100.00
2023-05-14T16:37:26.674Z,100.00
2023-05-14T16:39:55.003Z,100.00
2023-05-14T16:42:22.925Z,100.00
2023-05-14T16:44:50.938Z,100.00
2023-05-14T16:47:19.071Z,100.00
2023-05-14T16:49:46.754Z,100.00
2023-05-14T16:52:14.662Z,100.00
2023-05-14T16:54:42.764Z,100.00
2023-05-14T16:57:10.793Z,100.00
2023-05-14T16:59:38.760Z,100.00
2023-05-14T17:02:07.196Z,100.00
2023-05-14T17:04:34.864Z,100.00
2023-05-14T17:07:02.654Z,100.00
2023-05-14T17:09:30.703Z,100.00
2023-05-14T17:11:58.360Z,100.00
2023-05-14T17:14:26.004Z,100.00
2023-05-14T17:16:54.410Z,100.00
2023-05-14T17:19:22.083Z,100.00
2023-05-14T17:21:50.011Z,100.00
2023-05-14T17:24:18.011Z,100.00
2023-05-14T17:26:45.708Z,100.00
2023-05-14T17:29:13.420Z,100.00
2023-05-14T17:31:41.401Z,100.00
2023-05-14T17:34:09.098Z,100.00
2023-05-14T17:36:36.699Z,100.00
2023-05-14T17:39:04.610Z,100.00
2023-05-14T17:41:32.269Z,100.00
2023-05-14T17:44:00.013Z,100.00
2023-05-14T17:46:27.976Z,100.00
2023-05-14T17:48:55.645Z,100.00
2023-05-14T17:51:23.413Z,100.00
2023-05-14T17:53:51.806Z,100.00
2023-05-14T17:56:20.304Z,100.00
2023-05-14T17:58:49.112Z,100.00
2023-05-14T18:01:17.263Z,100.00
2023-05-14T18:03:45.524Z,100.00
2023-05-14T18:06:13.213Z,100.00
2023-05-14T18:08:40.881Z,100.00
2023-05-14T18:11:09.080Z,100.00
2023-05-14T18:13:37.065Z,100.00
2023-05-14T18:16:05.227Z,100.00
2023-05-14T18:18:33.318Z,100.00
2023-05-14T18:21:01.384Z,100.00
2023-05-14T18:23:29.076Z,100.00
2023-05-14T18:25:57.247Z,100.00
2023-05-14T18:28:25.461Z,100.00
2023-05-14T18:30:53.585Z,100.00
2023-05-14T18:33:21.697Z,100.00
2023-05-14T18:35:49.775Z,100.00
2023-05-14T18:38:17.711Z,100.00
2023-05-14T18:40:45.993Z,100.00
2023-05-14T18:43:13.985Z,100.00
2023-05-14T18:45:41.971Z,100.00
2023-05-14T18:48:10.273Z,100.00
2023-05-14T18:50:39.388Z,100.00
2023-05-14T18:53:07.617Z,100.00
2023-05-14T18:55:36.150Z,100.00
2023-05-14T18:58:05.055Z,100.00
2023-05-14T19:00:32.705Z,100.00
2023-05-14T19:03:00.828Z,100.00
2023-05-14T19:05:28.702Z,100.00
2023-05-14T19:07:56.821Z,100.00
2023-05-14T19:10:25.002Z,100.00
2023-05-14T19:12:53.334Z,100.00
2023-05-14T19:15:21.000Z,100.00
2023-05-14T19:17:49.049Z,100.00
2023-05-14T19:20:16.929Z,100.00
2023-05-14T19:22:44.857Z,100.00
2023-05-14T19:25:12.828Z,100.00
2023-05-14T19:27:40.949Z,100.00
2023-05-14T19:30:09.170Z,100.00
2023-05-14T19:32:37.369Z,100.00
2023-05-14T19:35:05.695Z,100.00
2023-05-14T19:37:33.341Z,100.00
2023-05-14T19:40:01.399Z,100.00
2023-05-14T19:42:29.247Z,100.00
2023-05-14T19:44:57.099Z,100.00
2023-05-14T19:47:25.167Z,100.00
2023-05-14T19:49:53.103Z,100.00
2023-05-14T19:52:20.955Z,100.00
2023-05-14T19:54:48.940Z,100.00
2023-05-14T19:57:16.751Z,100.00
2023-05-14T19:59:44.400Z,100.00
2023-05-14T20:02:12.338Z,100.00
2023-05-14T20:04:40.541Z,100.00
2023-05-14T20:07:08.331Z,100.00
2023-05-14T20:09:35.996Z,100.00
2023-05-14T20:12:04.230Z,100.00
2023-05-14T20:14:32.075Z,100.00
2023-05-14T20:16:59.865Z,100.00
2023-05-14T20:19:27.924Z,100.00
2023-05-14T20:21:55.487Z,100.00
2023-05-14T20:24:23.126Z,100.00
2023-05-14T20:26:51.806Z,100.00
2023-05-14T20:29:20.800Z,100.00
2023-05-14T20:31:48.895Z,100.00
2023-05-14T20:34:18.350Z,100.00
2023-05-14T20:36:46.483Z,100.00
2023-05-14T20:39:15.167Z,100.00
2023-05-14T20:41:43.872Z,100.00
2023-05-14T20:44:13.902Z,100.00
2023-05-14T20:46:41.622Z,100.00
2023-05-14T20:49:09.641Z,100.00
2023-05-14T20:51:37.370Z,100.00
2023-05-14T20:54:05.082Z,100.00
2023-05-14T20:56:33.112Z,100.00
2023-05-14T20:59:00.774Z,100.00
2023-05-14T21:01:28.369Z,100.00
2023-05-14T21:03:56.823Z,100.00
2023-05-14T21:06:24.672Z,100.00
2023-05-14T21:08:52.671Z,100.00
2023-05-14T21:11:20.670Z,100.00
2023-05-14T21:13:48.282Z,100.00
2023-05-14T21:16:16.083Z,100.00
2023-05-14T21:18:44.126Z,100.00
2023-05-14T21:21:11.801Z,100.00
2023-05-14T21:23:39.506Z,100.00
2023-05-14T21:26:07.424Z,100.00
2023-05-14T21:28:35.088Z,100.00
2023-05-14T21:31:02.755Z,100.00
2023-05-14T21:33:30.736Z,100.00
2023-05-14T21:35:58.305Z,100.00
2023-05-14T21:38:26.046Z,100.00
2023-05-14T21:40:54.267Z,100.00
2023-05-14T21:43:21.870Z,100.00
2023-05-14T21:45:49.470Z,100.00
2023-05-14T21:48:17.557Z,100.00
2023-05-14T21:50:45.358Z,100.00
2023-05-14T21:53:12.972Z,100.00
2023-05-14T21:55:41.580Z,100.00
2023-05-14T21:58:09.292Z,100.00
2023-05-14T22:00:37.002Z,100.00
2023-05-14T22:03:04.945Z,100.00
2023-05-14T22:05:32.698Z,100.00
2023-05-14T22:08:00.454Z,100.00
2023-05-14T22:10:28.541Z,100.00
2023-05-14T22:12:56.080Z,100.00
2023-05-14T22:15:23.839Z,100.00
2023-05-14T22:17:52.266Z,100.00
2023-05-14T22:20:19.875Z,100.00
2023-05-14T22:22:47.520Z,100.00
2023-05-14T22:25:16.004Z,100.00
2023-05-14T22:27:43.644Z,100.00
2023-05-14T22:30:11.507Z,100.00
2023-05-14T22:32:39.371Z,100.00
2023-05-14T22:35:07.268Z,100.00
2023-05-14T22:37:35.307Z,100.00
2023-05-14T22:40:03.324Z,100.00
2023-05-14T22:42:31.592Z,100.00
2023-05-14T22:44:59.488Z,100.00
2023-05-14T22:47:27.529Z,100.00
2023-05-14T22:49:55.124Z,100.00
2023-05-14T22:52:22.745Z,100.00
2023-05-14T22:54:50.792Z,100.00
2023-05-14T22:57:18.363Z,100.00
2023-05-14T22:59:45.928Z,100.00
2023-05-14T23:02:13.881Z,100.00
2023-05-14T23:04:41.534Z,100.00
2023-05-14T23:07:09.631Z,100.00
2023-05-14T23:09:37.530Z,100.00
2023-05-14T23:12:05.523Z,100.00
2023-05-14T23:14:33.194Z,100.00
2023-05-14T23:17:01.716Z,100.00
2023-05-14T23:19:29.264Z,100.00
2023-05-14T23:21:56.951Z,100.00
2023-05-14T23:24:24.924Z,100.00
2023-05-14T23:26:52.839Z,100.00
2023-05-14T23:29:20.399Z,100.00
2023-05-14T23:31:48.335Z,100.00
2023-05-14T23:34:16.108Z,100.00
2023-05-14T23:36:44.209Z,100.00
2023-05-14T23:39:12.280Z,100.00
2023-05-14T23:41:39.962Z,100.00
2023-05-14T23:44:07.701Z,100.00
2023-05-14T23:46:35.711Z,100.00
2023-05-14T23:49:03.414Z,100.00
2023-05-14T23:51:31.092Z,100.00
2023-05-14T23:53:59.002Z,100.00
2023-05-14T23:56:27.150Z,100.00
2023-05-14T23:58:55.277Z,100.00
